This is the latest recevied weather packets stored in our database for station/object DC7RY. If no packets are shown the sender has not sent any weather packets the latest 10 day(s).
| Time | Temp. | Humidity | Pressure | Rain* | Wind** | Luminosity | Snow |
|---|---|---|---|---|---|---|---|
| 1777233619 | 7.22° C | 71% | 1016.4 hPa | 0 mm | - | 0 W/m² | - |
| 1777233027 | 7.78° C | 68% | 1016.4 hPa | 0 mm | - | 0 W/m² | - |
| 1777232419 | 8.33° C | 66% | 1016.4 hPa | 0 mm | - | 0 W/m² | - |
| 1777231827 | 8.33° C | 64% | 1016.4 hPa | 0 mm | - | 0 W/m² | - |
| 1777231219 | 8.33° C | 65% | 1016.3 hPa | 0 mm | - | 0 W/m² | - |
| 1777230627 | 8.89° C | 64% | 1016.2 hPa | 0 mm | - | 0 W/m² | - |
| 1777230019 | 9.44° C | 64% | 1016.2 hPa | 0 mm | - | 0 W/m² | - |
| 1777229427 | 10° C | 64% | 1016.1 hPa | 0 mm | - | 0 W/m² | - |
| 1777228819 | 10.56° C | 62% | 1015.9 hPa | 0 mm | - | 0 W/m² | - |
| 1777228227 | 11.67° C | 59% | 1015.9 hPa | 0 mm | - | 1 W/m² | - |
| 1777227619 | 12.22° C | 56% | 1015.8 hPa | 0 mm | - | 5 W/m² | - |
| 1777227027 | 13.33° C | 54% | 1015.9 hPa | 0 mm | - | 27 W/m² | - |
| 1777226419 | 14.44° C | 51% | 1015.9 hPa | 0 mm | - | 32 W/m² | - |
| 1777225827 | 15° C | 48% | 1015.9 hPa | 0 mm | - | 68 W/m² | - |
| 1777225219 | 15° C | 47% | 1015.7 hPa | 0 mm | - | 115 W/m² | - |
| 1777224627 | 15° C | 44% | 1015.7 hPa | 0 mm | - | 126 W/m² | - |
| 1777224019 | 15° C | 47% | 1015.6 hPa | 0 mm | - | 172 W/m² | - |
| 1777223427 | 15° C | 46% | 1015.7 hPa | 0 mm | - | 163 W/m² | - |
| 1777222819 | 15° C | 46% | 1015.5 hPa | 0 mm | - | 153 W/m² | - |
| 1777222227 | 15° C | 48% | 1015.8 hPa | 0 mm | - | 137 W/m² | - |
| 1777221619 | 15.56° C | 46% | 1015.6 hPa | 0 mm | - | 103 W/m² | - |
| 1777221027 | 16.11° C | 45% | 1015.9 hPa | 0 mm | - | 146 W/m² | - |
| 1777220419 | 16.67° C | 42% | 1015.8 hPa | 0 mm | - | 106 W/m² | - |
| 1777219827 | 16.67° C | 40% | 1016 hPa | 0 mm | - | 215 W/m² | - |
| 1777219219 | 16.67° C | 40% | 1015.9 hPa | 0 mm | - | 238 W/m² | - |
* Rain latest hour (hover to see other rain measurements)
** Current wind speed in m/s (hover to see current wind gust speed)